WBGG

Kuching International Airport

Kuching, Malaysia
TAF WBGG 171100Z 1712/1812 14005KT 6000 FEW018
Issued Valid From Valid To
Aug-17 @ 11:00 UTC
(4 hours ago)
Aug-17 @ 12:00 UTC
(3 hours ago)
Aug-18 @ 12:00 UTC
(in 21 hours)
Aug-17 @ 12:00 to Aug-18 @ 12:00
TAF WBGG 171100Z 1712/1812 14005KT 6000 FEW018
Wind Visibility Clouds
140° at 5 knots 6,003 meters
  • Few at 1,800' AGL
TAF WBGG 171100Z 1712/1812 14005KT 6000 FEW018
Issued Aug-17 @ 11:00 UTC
(4 hours ago)
Valid From Aug-17 @ 12:00 UTC
(3 hours ago)
Valid To Aug-18 @ 12:00 UTC
(in 21 hours)
Aug-17 @ 12:00 - Aug-18 @ 12:00
Wind Visibility
140° at 5 knots 6,003 meters
Clouds
  • Few at 1,800' AGL